Time;durP1;ratioP1;P1;durP2;ratioP2;P2;SDS_P1;SDS_P2;PMS_P1;PMS_P2;Temp;Humidity;BMP_temperature;BMP_pressure;BME280_temperature;BME280_humidity;BME280_pressure;Samples;Min_cycle;Max_cycle;Signal;HPM_P1;HPM_P2
2021/11/03 00:00:26;;;;;;;10.20;9.30;;;;;;;;;;4998367;28;24408;-60
2021/11/03 00:02:52;;;;;;;9.70;8.80;;;;;;;;;;4996421;28;25246;-60
2021/11/03 00:05:17;;;;;;;10.53;9.53;;;;;;;;;;4998514;28;24427;-60
2021/11/03 00:07:42;;;;;;;9.47;8.60;;;;;;;;;;4998251;28;24412;-60
2021/11/03 00:10:09;;;;;;;8.90;8.10;;;;;;;;;;5002055;28;25039;-60
2021/11/03 00:12:35;;;;;;;9.88;8.90;;;;;;;;;;4999913;28;24507;-61
2021/11/03 00:15:00;;;;;;;9.70;8.70;;;;;;;;;;4998061;28;24594;-61
2021/11/03 00:17:25;;;;;;;9.77;8.87;;;;;;;;;;4996154;28;24440;-60
2021/11/03 00:19:51;;;;;;;9.88;8.90;;;;;;;;;;4997194;28;25318;-60
2021/11/03 00:22:16;;;;;;;10.50;9.50;;;;;;;;;;5000933;28;24861;-60
2021/11/03 00:24:42;;;;;;;10.17;9.27;;;;;;;;;;5000087;28;24466;-59
2021/11/03 00:27:07;;;;;;;10.40;9.40;;;;;;;;;;5000263;28;24424;-60
2021/11/03 00:29:33;;;;;;;10.20;9.30;;;;;;;;;;4994511;28;24444;-60
2021/11/03 00:31:58;;;;;;;10.32;9.32;;;;;;;;;;4995998;28;24412;-60
2021/11/03 00:34:23;;;;;;;10.88;9.77;;;;;;;;;;4996147;28;24428;-60
2021/11/03 00:36:48;;;;;;;10.70;9.70;;;;;;;;;;4999689;28;24767;-60
2021/11/03 00:39:13;;;;;;;10.93;9.93;;;;;;;;;;5001969;28;24413;-60
2021/11/03 00:41:38;;;;;;;11.00;9.90;;;;;;;;;;4999824;28;24507;-60
2021/11/03 00:44:04;;;;;;;10.03;9.03;;;;;;;;;;4997394;28;24467;-60
2021/11/03 00:46:29;;;;;;;11.25;10.15;;;;;;;;;;4997863;28;24528;-60
2021/11/03 00:48:54;;;;;;;11.80;10.60;;;;;;;;;;4996171;28;25058;-60
2021/11/03 00:51:19;;;;;;;12.53;11.33;;;;;;;;;;4998014;28;24416;-60
2021/11/03 00:53:44;;;;;;;12.00;10.90;;;;;;;;;;5001490;28;24496;-60
2021/11/03 00:56:10;;;;;;;11.40;10.30;;;;;;;;;;5001213;28;24782;-59
2021/11/03 00:58:35;;;;;;;10.90;9.90;;;;;;;;;;5001845;28;24424;-59
2021/11/03 01:01:00;;;;;;;10.68;9.60;;;;;;;;;;4999796;28;25002;-60
2021/11/03 01:03:25;;;;;;;10.37;9.37;;;;;;;;;;5000041;28;24833;-59
2021/11/03 01:05:51;;;;;;;10.07;9.18;;;;;;;;;;5002622;28;25258;-60
2021/11/03 01:08:16;;;;;;;10.02;9.10;;;;;;;;;;5005560;28;24474;-60
2021/11/03 01:10:42;;;;;;;11.10;9.90;;;;;;;;;;5000278;28;24439;-60
2021/11/03 01:13:08;;;;;;;10.63;9.55;;;;;;;;;;4986151;28;24416;-59
2021/11/03 01:15:35;;;;;;;10.90;9.90;;;;;;;;;;5003251;28;24423;-59
2021/11/03 01:18:00;;;;;;;10.70;9.60;;;;;;;;;;5004864;28;25081;-60
2021/11/03 01:20:26;;;;;;;10.93;9.93;;;;;;;;;;5005206;28;24416;-60
2021/11/03 01:22:52;;;;;;;11.05;9.95;;;;;;;;;;5000944;28;24491;-60
2021/11/03 01:25:19;;;;;;;11.57;10.38;;;;;;;;;;4998630;28;24447;-60
2021/11/03 01:27:44;;;;;;;11.87;10.67;;;;;;;;;;5000094;28;24447;-60
2021/11/03 01:30:11;;;;;;;11.13;9.93;;;;;;;;;;5005036;28;24725;-60
2021/11/03 01:32:36;;;;;;;10.55;9.55;;;;;;;;;;5003139;28;24412;-60
2021/11/03 01:35:01;;;;;;;13.17;10.77;;;;;;;;;;5002651;28;24502;-60
2021/11/03 01:37:26;;;;;;;11.10;10.00;;;;;;;;;;5001250;28;24459;-60
2021/11/03 01:39:52;;;;;;;10.75;9.75;;;;;;;;;;4998806;28;24412;-60
2021/11/03 01:42:17;;;;;;;10.90;9.90;;;;;;;;;;5004618;28;24424;-60
2021/11/03 01:44:42;;;;;;;10.80;9.80;;;;;;;;;;5002260;28;24976;-60
2021/11/03 01:47:26;;;;;;;10.68;9.40;;;;;;;;;;4997945;28;24473;-60
2021/11/03 01:49:51;;;;;;;10.23;9.27;;;;;;;;;;5000197;28;24409;-59
2021/11/03 01:52:17;;;;;;;10.77;9.77;;;;;;;;;;4999011;28;24443;-59
2021/11/03 01:54:54;;;;;;;10.10;9.10;;;;;;;;;;5001030;28;24435;-59
2021/11/03 01:57:23;;;;;;;10.77;9.68;;;;;;;;;;5002356;28;24999;-60
2021/11/03 01:59:50;;;;;;;10.85;9.75;;;;;;;;;;5001862;28;25298;-59
2021/11/03 02:02:17;;;;;;;10.20;9.20;;;;;;;;;;5004686;28;24470;-60
2021/11/03 02:04:43;;;;;;;10.73;9.60;;;;;;;;;;5002816;28;24477;-60
2021/11/03 02:07:12;;;;;;;10.20;9.20;;;;;;;;;;4998499;28;24444;-60
2021/11/03 02:09:37;;;;;;;11.13;10.13;;;;;;;;;;5000119;28;24469;-59
2021/11/03 02:12:03;;;;;;;10.20;9.10;;;;;;;;;;5002099;28;25007;-59
2021/11/03 02:14:28;;;;;;;11.13;10.03;;;;;;;;;;5003574;28;24413;-59
2021/11/03 02:16:53;;;;;;;10.32;9.32;;;;;;;;;;5001453;28;24416;-59
2021/11/03 02:19:26;;;;;;;9.20;8.30;;;;;;;;;;5000025;28;24949;-60
2021/11/03 02:22:07;;;;;;;10.20;9.00;;;;;;;;;;4997333;28;25111;-59
2021/11/03 02:24:38;;;;;;;9.00;8.20;;;;;;;;;;5001220;28;24456;-60
2021/11/03 02:27:04;;;;;;;9.25;8.35;;;;;;;;;;5003018;28;24431;-59
2021/11/03 02:29:29;;;;;;;8.95;8.15;;;;;;;;;;5003060;28;24454;-59
2021/11/03 02:31:56;;;;;;;10.05;8.70;;;;;;;;;;4999906;28;25436;-59
2021/11/03 02:34:23;;;;;;;7.97;7.28;;;;;;;;;;4997894;28;24408;-59
2021/11/03 02:36:53;;;;;;;7.75;7.05;;;;;;;;;;4998622;28;25200;-59
2021/11/03 02:39:22;;;;;;;8.48;7.68;;;;;;;;;;4991531;28;24413;-60
2021/11/03 02:41:47;;;;;;;8.57;7.67;;;;;;;;;;4995893;28;24830;-59
2021/11/03 02:44:13;;;;;;;8.70;7.90;;;;;;;;;;5003261;28;25001;-60
2021/11/03 02:46:39;;;;;;;8.88;8.07;;;;;;;;;;4999686;28;24447;-59
2021/11/03 02:49:04;;;;;;;8.30;7.60;;;;;;;;;;4997110;28;24920;-60
2021/11/03 02:51:34;;;;;;;8.40;7.60;;;;;;;;;;4999437;28;24490;-60
2021/11/03 02:54:03;;;;;;;7.70;7.00;;;;;;;;;;5002263;28;24420;-59
2021/11/03 02:56:30;;;;;;;8.20;7.10;;;;;;;;;;5003239;28;24563;-59
2021/11/03 02:58:55;;;;;;;7.20;6.60;;;;;;;;;;5001031;28;24925;-60
2021/11/03 03:01:40;;;;;;;7.78;7.07;;;;;;;;;;5001040;28;24432;-59
2021/11/03 03:04:07;;;;;;;8.15;7.35;;;;;;;;;;4996696;28;24488;-60
2021/11/03 03:06:33;;;;;;;7.72;7.03;;;;;;;;;;4997559;28;24417;-60
2021/11/03 03:08:58;;;;;;;7.60;6.80;;;;;;;;;;5001437;28;24925;-60
2021/11/03 03:11:24;;;;;;;7.70;6.90;;;;;;;;;;5002783;28;24408;-60
2021/11/03 03:13:50;;;;;;;7.40;6.80;;;;;;;;;;4998642;28;24412;-60
2021/11/03 03:16:16;;;;;;;7.50;6.80;;;;;;;;;;4997354;28;24516;-59
2021/11/03 03:18:41;;;;;;;7.40;6.70;;;;;;;;;;4997479;28;24451;-59
2021/11/03 03:21:06;;;;;;;7.57;6.83;;;;;;;;;;5002125;28;24447;-59
2021/11/03 03:23:31;;;;;;;7.30;6.60;;;;;;;;;;5002428;28;24498;-60
2021/11/03 03:25:57;;;;;;;7.90;7.20;;;;;;;;;;5001098;28;24976;-59
2021/11/03 03:28:22;;;;;;;7.93;7.13;;;;;;;;;;5000815;28;24539;-59
2021/11/03 03:30:48;;;;;;;8.05;7.35;;;;;;;;;;4997004;28;24408;-60
2021/11/03 03:33:13;;;;;;;7.97;7.28;;;;;;;;;;4998982;28;24658;-60
2021/11/03 03:35:38;;;;;;;8.50;7.70;;;;;;;;;;4998825;28;24857;-59
2021/11/03 03:38:03;;;;;;;7.47;6.75;;;;;;;;;;5001830;28;24420;-59
2021/11/03 03:40:29;;;;;;;7.72;7.00;;;;;;;;;;5002508;28;24806;-60
2021/11/03 03:42:54;;;;;;;7.70;7.00;;;;;;;;;;4997428;28;25074;-59
2021/11/03 03:45:19;;;;;;;7.57;6.88;;;;;;;;;;4996773;28;24519;-59
2021/11/03 03:47:44;;;;;;;7.60;6.80;;;;;;;;;;4998506;28;24478;-59
2021/11/03 03:50:10;;;;;;;6.90;6.20;;;;;;;;;;4998443;28;24751;-59
2021/11/03 03:52:35;;;;;;;6.50;5.90;;;;;;;;;;5001278;28;24396;-59
2021/11/03 03:55:01;;;;;;;6.20;5.70;;;;;;;;;;5001649;28;24427;-60
2021/11/03 03:57:26;;;;;;;6.07;5.50;;;;;;;;;;5001293;28;24568;-60
2021/11/03 03:59:51;;;;;;;6.13;5.60;;;;;;;;;;4996174;28;24420;-60
2021/11/03 04:02:17;;;;;;;6.50;5.90;;;;;;;;;;4997383;28;24954;-60
2021/11/03 04:04:43;;;;;;;6.40;5.80;;;;;;;;;;5001209;28;24427;-61
2021/11/03 04:07:09;;;;;;;6.93;6.22;;;;;;;;;;5002507;28;24443;-60
2021/11/03 04:09:34;;;;;;;7.10;6.40;;;;;;;;;;5002137;28;24440;-60
2021/11/03 04:11:59;;;;;;;6.28;5.70;;;;;;;;;;4998087;28;25223;-60
2021/11/03 04:14:24;;;;;;;7.10;6.40;;;;;;;;;;4996557;28;25077;-59
2021/11/03 04:16:49;;;;;;;6.60;6.00;;;;;;;;;;4997972;28;24428;-59
2021/11/03 04:19:14;;;;;;;6.20;5.60;;;;;;;;;;5002332;28;24779;-59
2021/11/03 04:21:40;;;;;;;5.32;4.82;;;;;;;;;;4999843;28;24545;-59
2021/11/03 04:24:05;;;;;;;6.07;5.47;;;;;;;;;;5001952;28;24792;-60
2021/11/03 04:26:34;;;;;;;5.50;5.10;;;;;;;;;;4998148;28;24401;-60
2021/11/03 04:28:59;;;;;;;5.40;4.90;;;;;;;;;;4994823;28;25162;-60
2021/11/03 04:31:24;;;;;;;4.80;4.40;;;;;;;;;;4998046;28;24415;-60
2021/11/03 04:33:51;;;;;;;4.70;4.30;;;;;;;;;;4995281;28;24474;-59
2021/11/03 04:36:16;;;;;;;4.20;3.90;;;;;;;;;;5001447;28;24417;-60
2021/11/03 04:38:42;;;;;;;4.40;4.00;;;;;;;;;;4998299;28;24428;-59
2021/11/03 04:41:07;;;;;;;4.00;3.70;;;;;;;;;;4999562;28;24444;-60
2021/11/03 04:43:32;;;;;;;4.80;4.40;;;;;;;;;;4996440;28;24420;-60
2021/11/03 04:45:58;;;;;;;4.50;4.10;;;;;;;;;;4997119;28;24459;-60
2021/11/03 04:48:23;;;;;;;4.10;3.70;;;;;;;;;;4986792;28;24504;-59
2021/11/03 04:50:48;;;;;;;4.35;4.05;;;;;;;;;;4987760;28;25041;-60
2021/11/03 04:53:13;;;;;;;4.60;4.20;;;;;;;;;;4990997;28;24413;-60
2021/11/03 04:55:39;;;;;;;3.80;3.50;;;;;;;;;;4994992;28;24424;-60
2021/11/03 04:58:05;;;;;;;4.10;3.80;;;;;;;;;;4996001;28;24565;-60
2021/11/03 05:00:30;;;;;;;4.30;4.00;;;;;;;;;;4999088;28;25058;-60
2021/11/03 05:02:55;;;;;;;4.50;4.10;;;;;;;;;;5001691;28;24421;-60
2021/11/03 05:05:21;;;;;;;5.70;5.20;;;;;;;;;;5000812;28;24412;-60
2021/11/03 05:07:47;;;;;;;5.33;4.83;;;;;;;;;;4997605;28;24854;-61
2021/11/03 05:10:12;;;;;;;5.68;5.18;;;;;;;;;;4996195;28;24969;-61
2021/11/03 05:12:38;;;;;;;5.57;5.00;;;;;;;;;;4988434;28;24417;-58
2021/11/03 05:15:03;;;;;;;6.27;5.77;;;;;;;;;;4998986;28;24523;-59
2021/11/03 05:17:28;;;;;;;7.10;6.40;;;;;;;;;;4999828;28;24455;-60
2021/11/03 05:19:53;;;;;;;6.80;6.20;;;;;;;;;;4993292;28;24499;-59
2021/11/03 05:22:19;;;;;;;6.70;6.10;;;;;;;;;;4987347;28;24495;-59
2021/11/03 05:24:45;;;;;;;6.97;6.27;;;;;;;;;;4997991;28;24467;-59
2021/11/03 05:27:12;;;;;;;7.78;7.00;;;;;;;;;;4998719;28;24489;-60
2021/11/03 05:29:37;;;;;;;7.78;7.00;;;;;;;;;;5002833;28;24475;-60
2021/11/03 05:32:03;;;;;;;8.98;8.15;;;;;;;;;;5013643;28;24424;-61
2021/11/03 05:34:28;;;;;;;9.90;8.90;;;;;;;;;;5002639;28;24407;-59
2021/11/03 05:36:53;;;;;;;9.23;8.25;;;;;;;;;;4984926;28;24519;-60
2021/11/03 05:39:18;;;;;;;9.83;8.93;;;;;;;;;;4988676;28;24421;-60
2021/11/03 05:41:44;;;;;;;9.20;8.30;;;;;;;;;;4980303;28;24960;-59
2021/11/03 05:44:11;;;;;;;9.88;8.88;;;;;;;;;;4995301;28;24553;-60
2021/11/03 05:46:41;;;;;;;10.40;9.30;;;;;;;;;;4999325;28;25112;-59
2021/11/03 05:49:09;;;;;;;9.65;8.65;;;;;;;;;;5000863;28;24837;-60
2021/11/03 05:51:36;;;;;;;10.05;9.00;;;;;;;;;;4995060;28;24512;-58
2021/11/03 05:54:01;;;;;;;14.20;10.57;;;;;;;;;;4996874;28;24454;-60
2021/11/03 05:56:26;;;;;;;10.77;9.65;;;;;;;;;;4999228;28;24524;-59
2021/11/03 05:58:51;;;;;;;10.40;9.30;;;;;;;;;;4996902;28;24432;-60
2021/11/03 06:01:17;;;;;;;9.87;8.97;;;;;;;;;;4994617;28;24439;-60
2021/11/03 06:03:42;;;;;;;11.77;10.53;;;;;;;;;;4998899;28;24460;-60
2021/11/03 06:06:07;;;;;;;11.20;10.10;;;;;;;;;;4984898;28;25226;-60
2021/11/03 06:08:32;;;;;;;11.47;10.37;;;;;;;;;;4995933;28;24412;-60
2021/11/03 06:10:58;;;;;;;11.35;10.15;;;;;;;;;;4996478;28;24585;-60
2021/11/03 06:13:24;;;;;;;11.63;10.43;;;;;;;;;;5000078;28;24432;-60
2021/11/03 06:15:49;;;;;;;12.98;11.63;;;;;;;;;;4995400;28;24443;-60
2021/11/03 06:18:14;;;;;;;12.27;10.97;;;;;;;;;;4991565;28;24486;-60
2021/11/03 06:20:40;;;;;;;11.27;10.17;;;;;;;;;;4998982;28;24923;-58
2021/11/03 06:23:05;;;;;;;12.15;10.85;;;;;;;;;;5003146;28;24436;-58
2021/11/03 06:25:31;;;;;;;12.03;10.80;;;;;;;;;;4999580;28;24439;-58
2021/11/03 06:27:56;;;;;;;12.63;10.30;;;;;;;;;;4997570;28;24421;-59
2021/11/03 06:30:24;;;;;;;11.70;10.50;;;;;;;;;;4998323;28;24412;-59
2021/11/03 06:32:49;;;;;;;13.93;11.50;;;;;;;;;;5002938;28;24421;-59
2021/11/03 06:35:14;;;;;;;13.15;11.32;;;;;;;;;;5003960;28;24467;-59
2021/11/03 06:37:40;;;;;;;13.20;10.80;;;;;;;;;;5003077;28;24960;-60
2021/11/03 06:40:06;;;;;;;12.10;10.80;;;;;;;;;;4997274;28;24837;-58
2021/11/03 06:42:31;;;;;;;11.98;10.77;;;;;;;;;;4999879;28;25003;-59
2021/11/03 06:44:56;;;;;;;13.20;11.80;;;;;;;;;;4999225;28;24459;-59
2021/11/03 06:47:21;;;;;;;11.90;10.70;;;;;;;;;;5003432;28;24450;-58
2021/11/03 06:49:47;;;;;;;13.43;12.02;;;;;;;;;;5001011;28;24890;-59
2021/11/03 06:52:12;;;;;;;12.20;11.00;;;;;;;;;;5001733;28;24423;-61
2021/11/03 06:54:37;;;;;;;13.00;11.70;;;;;;;;;;4997469;28;24427;-60
2021/11/03 06:57:03;;;;;;;13.30;11.90;;;;;;;;;;4998182;28;24531;-60
2021/11/03 06:59:28;;;;;;;13.15;11.75;;;;;;;;;;5002594;28;24408;-60
2021/11/03 07:01:54;;;;;;;13.80;12.30;;;;;;;;;;4998997;28;25323;-60
2021/11/03 07:04:19;;;;;;;15.17;12.33;;;;;;;;;;5000989;28;24428;-59
2021/11/03 07:06:44;;;;;;;12.60;11.30;;;;;;;;;;4998270;28;24467;-59
2021/11/03 07:09:09;;;;;;;12.40;11.10;;;;;;;;;;4994072;28;24466;-59
2021/11/03 07:11:34;;;;;;;12.07;10.73;;;;;;;;;;4995473;28;24431;-60
2021/11/03 07:13:59;;;;;;;12.70;11.20;;;;;;;;;;4998987;28;24458;-60
2021/11/03 07:16:25;;;;;;;12.23;10.93;;;;;;;;;;5001772;28;24446;-59
2021/11/03 07:18:51;;;;;;;12.13;10.82;;;;;;;;;;4994634;28;24753;-60
2021/11/03 07:21:16;;;;;;;12.20;11.00;;;;;;;;;;4991021;28;24432;-60
2021/11/03 07:23:41;;;;;;;12.23;10.77;;;;;;;;;;4980506;28;24629;-60
2021/11/03 07:26:06;;;;;;;11.47;10.37;;;;;;;;;;4992545;28;24424;-59
2021/11/03 07:28:32;;;;;;;12.38;11.07;;;;;;;;;;4997557;28;24506;-60
2021/11/03 07:30:57;;;;;;;11.10;10.00;;;;;;;;;;4994284;28;24992;-59
2021/11/03 07:33:23;;;;;;;12.02;10.82;;;;;;;;;;4973202;28;24981;-59
2021/11/03 07:35:48;;;;;;;11.43;10.30;;;;;;;;;;4996715;28;24424;-59
2021/11/03 07:38:14;;;;;;;12.50;11.30;;;;;;;;;;4993040;28;24413;-60
2021/11/03 07:40:42;;;;;;;13.23;11.77;;;;;;;;;;4989792;28;24556;-60
2021/11/03 07:43:08;;;;;;;12.40;11.30;;;;;;;;;;4998201;28;24428;-59
2021/11/03 07:45:34;;;;;;;11.07;9.97;;;;;;;;;;4993682;28;24419;-59
2021/11/03 07:48:00;;;;;;;10.70;9.70;;;;;;;;;;4998744;28;24408;-59
2021/11/03 07:50:28;;;;;;;11.18;10.07;;;;;;;;;;4994391;28;24463;-60
2021/11/03 07:52:53;;;;;;;9.90;8.90;;;;;;;;;;4995008;28;24447;-60
2021/11/03 07:55:19;;;;;;;10.60;9.60;;;;;;;;;;4996558;28;24420;-60
2021/11/03 07:57:44;;;;;;;11.93;10.60;;;;;;;;;;5000351;28;24818;-60
2021/11/03 08:00:13;;;;;;;10.98;9.88;;;;;;;;;;4991670;28;24413;-60
2021/11/03 08:02:38;;;;;;;11.68;10.48;;;;;;;;;;4959860;28;24425;-60
2021/11/03 08:05:04;;;;;;;11.15;9.95;;;;;;;;;;4978487;28;24946;-59
2021/11/03 08:07:29;;;;;;;10.93;9.90;;;;;;;;;;4980356;28;24520;-60
2021/11/03 08:09:54;;;;;;;10.52;9.52;;;;;;;;;;4993025;28;24405;-59
2021/11/03 08:12:20;;;;;;;10.90;9.80;;;;;;;;;;5001653;28;24951;-60
2021/11/03 08:14:45;;;;;;;9.80;8.80;;;;;;;;;;4997758;28;24396;-60
2021/11/03 08:17:13;;;;;;;8.90;7.90;;;;;;;;;;4997644;28;24486;-60
2021/11/03 08:19:49;;;;;;;9.90;9.00;;;;;;;;;;4999470;28;24980;-59
2021/11/03 08:22:20;;;;;;;8.50;7.70;;;;;;;;;;5000514;28;24965;-60
2021/11/03 08:24:45;;;;;;;9.40;8.40;;;;;;;;;;5000254;28;24408;-60
2021/11/03 08:27:10;;;;;;;12.20;10.00;;;;;;;;;;4995998;28;24991;-60
2021/11/03 08:29:38;;;;;;;10.68;9.57;;;;;;;;;;4999506;28;24392;-60
2021/11/03 08:32:04;;;;;;;10.60;9.55;;;;;;;;;;4999233;28;24512;-59
2021/11/03 08:34:30;;;;;;;10.03;9.03;;;;;;;;;;4999817;28;24487;-59
2021/11/03 08:36:59;;;;;;;9.35;8.45;;;;;;;;;;4996023;28;24446;-58
2021/11/03 08:39:24;;;;;;;9.55;8.65;;;;;;;;;;4996527;28;24413;-59
2021/11/03 08:41:49;;;;;;;9.27;8.27;;;;;;;;;;5000834;28;24444;-59
2021/11/03 08:44:14;;;;;;;9.30;8.30;;;;;;;;;;5001548;28;24865;-59
2021/11/03 08:46:40;;;;;;;8.38;7.50;;;;;;;;;;4995879;28;24419;-59
2021/11/03 08:49:05;;;;;;;7.15;6.45;;;;;;;;;;4997697;28;25057;-59
2021/11/03 08:51:33;;;;;;;7.00;6.30;;;;;;;;;;4991045;28;24963;-60
2021/11/03 08:54:00;;;;;;;8.18;7.38;;;;;;;;;;5001475;28;24690;-60
2021/11/03 08:56:25;;;;;;;7.10;6.40;;;;;;;;;;4996439;28;24907;-60
2021/11/03 08:58:51;;;;;;;6.40;5.80;;;;;;;;;;4976615;28;24955;-60
2021/11/03 09:01:16;;;;;;;6.13;5.55;;;;;;;;;;4978803;28;24429;-60
2021/11/03 09:03:41;;;;;;;5.30;4.80;;;;;;;;;;4999251;28;24514;-58
2021/11/03 09:06:07;;;;;;;5.80;5.30;;;;;;;;;;5001085;28;24443;-59
2021/11/03 09:08:35;;;;;;;5.03;4.63;;;;;;;;;;5001566;28;24424;-58
2021/11/03 09:11:02;;;;;;;5.70;5.20;;;;;;;;;;4997492;28;24397;-59
2021/11/03 09:13:28;;;;;;;6.20;5.60;;;;;;;;;;4995316;28;24400;-58
2021/11/03 09:15:53;;;;;;;6.05;5.55;;;;;;;;;;4998843;28;24427;-58
2021/11/03 09:18:19;;;;;;;6.90;6.30;;;;;;;;;;4981874;28;24397;-59
2021/11/03 09:20:45;;;;;;;7.00;6.30;;;;;;;;;;4983880;28;25006;-60
2021/11/03 09:23:11;;;;;;;6.25;5.75;;;;;;;;;;4982790;28;24635;-60
2021/11/03 09:25:37;;;;;;;5.72;5.22;;;;;;;;;;5001364;28;24391;-60
2021/11/03 09:28:02;;;;;;;6.50;5.90;;;;;;;;;;5004844;28;25057;-60
2021/11/03 09:30:28;;;;;;;6.10;5.60;;;;;;;;;;5005000;28;24420;-60
2021/11/03 09:32:55;;;;;;;6.07;5.57;;;;;;;;;;5003201;28;24396;-60
2021/11/03 09:35:22;;;;;;;6.35;5.75;;;;;;;;;;5002197;28;24903;-60
2021/11/03 09:37:47;;;;;;;6.25;5.75;;;;;;;;;;5001028;28;24419;-60
2021/11/03 09:40:20;;;;;;;6.40;5.80;;;;;;;;;;5002668;28;24416;-58
2021/11/03 09:42:45;;;;;;;6.63;6.03;;;;;;;;;;5003108;28;24954;-59
2021/11/03 09:45:17;;;;;;;7.90;7.10;;;;;;;;;;4998112;28;24738;-59
2021/11/03 09:47:54;;;;;;;8.23;7.53;;;;;;;;;;4984803;28;24393;-60
2021/11/03 09:50:20;;;;;;;7.90;7.20;;;;;;;;;;4998232;28;24416;-60
2021/11/03 09:52:51;;;;;;;7.75;7.15;;;;;;;;;;5001141;28;25014;-59
2021/11/03 09:55:21;;;;;;;8.27;7.57;;;;;;;;;;5002655;28;25300;-60
2021/11/03 09:57:52;;;;;;;6.40;5.90;;;;;;;;;;5003044;28;24397;-60
2021/11/03 10:00:51;;;;;;;6.80;6.20;;;;;;;;;;5000291;28;24431;-60
2021/11/03 10:03:22;;;;;;;7.18;6.55;;;;;;;;;;4954969;28;24482;-60
2021/11/03 10:05:47;;;;;;;6.22;5.72;;;;;;;;;;4999939;28;24419;-60
2021/11/03 10:08:17;;;;;;;7.07;6.47;;;;;;;;;;5003205;28;24827;-60
2021/11/03 10:10:53;;;;;;;7.53;6.85;;;;;;;;;;5001194;28;24404;-60
2021/11/03 10:13:23;;;;;;;7.80;7.10;;;;;;;;;;5002706;28;24431;-60
2021/11/03 10:16:01;;;;;;;7.53;6.85;;;;;;;;;;4998121;28;24405;-60
2021/11/03 10:18:27;;;;;;;7.20;6.60;;;;;;;;;;4999295;28;24397;-60
2021/11/03 10:21:03;;;;;;;7.18;6.57;;;;;;;;;;5003527;28;24979;-60
2021/11/03 10:23:29;;;;;;;8.20;7.50;;;;;;;;;;5003240;28;24510;-60
2021/11/03 10:25:57;;;;;;;8.18;7.38;;;;;;;;;;5002413;28;24891;-60
2021/11/03 10:28:27;;;;;;;7.60;6.90;;;;;;;;;;4999864;28;25011;-59
2021/11/03 10:30:53;;;;;;;7.10;6.50;;;;;;;;;;4999671;28;24392;-59
2021/11/03 10:33:21;;;;;;;7.30;6.70;;;;;;;;;;5003698;28;24462;-61
2021/11/03 10:35:55;;;;;;;6.47;5.97;;;;;;;;;;5002116;28;24431;-59
2021/11/03 10:38:21;;;;;;;7.30;6.70;;;;;;;;;;4998359;28;24393;-60
2021/11/03 10:40:56;;;;;;;6.30;5.80;;;;;;;;;;4999378;28;24775;-58
2021/11/03 10:43:24;;;;;;;5.82;5.32;;;;;;;;;;5003419;28;24444;-59
2021/11/03 10:45:56;;;;;;;6.00;5.50;;;;;;;;;;4991145;28;24563;-59
2021/11/03 10:48:24;;;;;;;6.23;5.73;;;;;;;;;;4983429;28;24451;-59
2021/11/03 10:50:55;;;;;;;5.00;4.60;;;;;;;;;;4998167;28;24392;-59
2021/11/03 10:53:22;;;;;;;4.50;4.20;;;;;;;;;;4998017;28;24511;-59
2021/11/03 10:55:57;;;;;;;4.30;4.00;;;;;;;;;;5001194;28;24409;-59
2021/11/03 10:58:22;;;;;;;4.15;3.85;;;;;;;;;;5003000;28;24872;-59
2021/11/03 11:00:55;;;;;;;3.50;3.30;;;;;;;;;;4999143;28;25186;-59
2021/11/03 11:03:24;;;;;;;3.22;2.92;;;;;;;;;;4997246;28;24452;-59
2021/11/03 11:05:54;;;;;;;3.17;2.90;;;;;;;;;;4997632;28;24409;-59
2021/11/03 11:08:22;;;;;;;3.70;3.40;;;;;;;;;;5003115;28;24834;-59
2021/11/03 11:11:06;;;;;;;3.65;3.35;;;;;;;;;;5000978;28;24397;-61
2021/11/03 11:13:34;;;;;;;3.90;3.60;;;;;;;;;;5001960;28;24417;-61
2021/11/03 11:16:12;;;;;;;4.50;4.10;;;;;;;;;;4997585;28;24432;-60
2021/11/03 11:18:38;;;;;;;4.60;4.20;;;;;;;;;;4995493;28;24760;-61
2021/11/03 11:21:12;;;;;;;5.00;4.60;;;;;;;;;;5000943;28;24513;-60
2021/11/03 11:23:39;;;;;;;4.80;4.40;;;;;;;;;;5001443;28;24480;-60
2021/11/03 11:26:11;;;;;;;5.03;4.63;;;;;;;;;;5002347;28;24952;-60
2021/11/03 11:28:45;;;;;;;4.80;4.40;;;;;;;;;;5000590;28;24388;-60
2021/11/03 11:31:19;;;;;;;4.70;4.30;;;;;;;;;;4996428;28;25137;-59
2021/11/03 11:33:58;;;;;;;4.70;4.30;;;;;;;;;;4997132;28;24406;-59
2021/11/03 11:36:31;;;;;;;5.50;5.10;;;;;;;;;;5002423;28;24593;-59
2021/11/03 11:39:02;;;;;;;5.40;5.00;;;;;;;;;;5000421;28;25045;-59
2021/11/03 11:41:37;;;;;;;5.40;4.90;;;;;;;;;;5001636;28;24439;-59
2021/11/03 11:44:06;;;;;;;6.15;5.55;;;;;;;;;;4998814;28;24988;-59
2021/11/03 11:46:32;;;;;;;5.90;5.40;;;;;;;;;;4982650;28;24423;-60
2021/11/03 11:49:01;;;;;;;5.90;5.40;;;;;;;;;;5000630;28;24396;-60
2021/11/03 11:51:32;;;;;;;5.80;5.30;;;;;;;;;;5002504;28;24425;-60
2021/11/03 11:53:58;;;;;;;5.40;5.00;;;;;;;;;;5000698;28;24388;-59
2021/11/03 11:56:27;;;;;;;5.72;5.22;;;;;;;;;;5000228;28;24822;-60
2021/11/03 11:58:54;;;;;;;5.80;5.30;;;;;;;;;;4995955;28;25056;-60
2021/11/03 12:01:21;;;;;;;6.05;5.55;;;;;;;;;;5000487;28;24470;-62
2021/11/03 12:04:13;;;;;;;5.50;5.10;;;;;;;;;;4999556;28;24850;-60
2021/11/03 12:06:41;;;;;;;8.40;5.53;;;;;;;;;;5001632;28;24405;-60
2021/11/03 12:09:25;;;;;;;5.57;5.07;;;;;;;;;;4995625;28;24650;-60
2021/11/03 12:11:58;;;;;;;5.22;4.82;;;;;;;;;;4997251;28;24939;-59
2021/11/03 12:14:23;;;;;;;5.95;5.45;;;;;;;;;;4982645;28;24409;-59
2021/11/03 12:16:54;;;;;;;5.97;5.47;;;;;;;;;;4997784;28;24411;-59
2021/11/03 12:19:44;;;;;;;5.70;5.20;;;;;;;;;;4998882;28;25247;-60
2021/11/03 12:22:10;;;;;;;6.10;5.60;;;;;;;;;;4997846;28;24724;-60
2021/11/03 12:24:39;;;;;;;5.50;5.10;;;;;;;;;;4998595;28;24405;-60
2021/11/03 12:27:23;;;;;;;5.70;5.20;;;;;;;;;;5002369;28;24392;-60
2021/11/03 12:30:00;;;;;;;5.13;4.72;;;;;;;;;;4999280;28;24424;-60
2021/11/03 12:32:48;;;;;;;4.80;4.40;;;;;;;;;;4999933;28;24927;-60
2021/11/03 12:35:19;;;;;;;4.93;4.53;;;;;;;;;;4986449;28;24420;-60
2021/11/03 12:37:46;;;;;;;5.20;4.80;;;;;;;;;;4978245;28;24401;-59
2021/11/03 12:40:23;;;;;;;4.10;3.80;;;;;;;;;;4992745;28;25120;-60
2021/11/03 12:42:53;;;;;;;4.30;4.00;;;;;;;;;;4998766;28;24693;-59
2021/11/03 12:45:20;;;;;;;5.10;4.60;;;;;;;;;;5001227;28;24432;-59
2021/11/03 12:47:53;;;;;;;5.00;4.60;;;;;;;;;;5000969;28;24986;-59
2021/11/03 12:50:37;;;;;;;4.80;4.40;;;;;;;;;;5001077;28;24413;-59
2021/11/03 12:53:05;;;;;;;4.10;3.80;;;;;;;;;;4998909;28;24404;-59
2021/11/03 12:55:32;;;;;;;4.70;4.10;;;;;;;;;;5005281;28;24388;-60
2021/11/03 12:57:58;;;;;;;3.85;3.55;;;;;;;;;;5005018;28;24393;-59
2021/11/03 13:00:25;;;;;;;3.80;3.50;;;;;;;;;;5000600;28;25001;-59
2021/11/03 13:02:54;;;;;;;4.20;3.90;;;;;;;;;;5001396;28;24455;-60
2021/11/03 13:05:19;;;;;;;4.80;4.25;;;;;;;;;;5004975;28;24450;-59
2021/11/03 13:07:45;;;;;;;4.60;4.20;;;;;;;;;;5003064;28;24456;-59
2021/11/03 13:10:17;;;;;;;4.90;4.50;;;;;;;;;;5004847;28;24891;-60
2021/11/03 13:12:50;;;;;;;4.50;4.20;;;;;;;;;;5003823;28;24495;-60
2021/11/03 13:15:20;;;;;;;4.43;3.95;;;;;;;;;;5004794;28;24416;-60
2021/11/03 13:17:50;;;;;;;4.65;4.25;;;;;;;;;;5001294;28;24507;-60
2021/11/03 13:20:34;;;;;;;4.30;4.00;;;;;;;;;;4999806;28;25005;-59
2021/11/03 13:23:01;;;;;;;4.60;3.87;;;;;;;;;;4986885;28;25091;-58
2021/11/03 13:25:32;;;;;;;4.30;3.90;;;;;;;;;;5004688;28;24500;-58
2021/11/03 13:27:57;;;;;;;4.20;3.90;;;;;;;;;;5002446;28;24927;-60
2021/11/03 13:30:24;;;;;;;3.67;3.37;;;;;;;;;;4998871;28;24463;-60
2021/11/03 13:32:58;;;;;;;4.18;3.80;;;;;;;;;;4999510;28;25001;-59
2021/11/03 13:35:25;;;;;;;4.00;3.70;;;;;;;;;;5004529;28;24450;-60
2021/11/03 13:37:53;;;;;;;4.20;3.80;;;;;;;;;;5002549;28;24432;-60
2021/11/03 13:40:21;;;;;;;4.20;3.80;;;;;;;;;;4999993;28;24455;-60
2021/11/03 13:42:56;;;;;;;4.30;3.90;;;;;;;;;;4999490;28;24478;-59
2021/11/03 13:45:26;;;;;;;4.10;3.80;;;;;;;;;;5004652;28;24407;-60
2021/11/03 13:48:00;;;;;;;3.77;3.47;;;;;;;;;;5002794;28;24938;-60
2021/11/03 13:50:25;;;;;;;3.60;3.30;;;;;;;;;;5004202;28;24499;-60
2021/11/03 13:53:12;;;;;;;3.63;3.33;;;;;;;;;;5000359;28;24499;-59
2021/11/03 13:55:43;;;;;;;4.00;3.60;;;;;;;;;;4998568;28;24704;-60
2021/11/03 13:58:38;;;;;;;3.50;3.20;;;;;;;;;;5002354;28;24750;-59
2021/11/03 14:01:06;;;;;;;3.50;3.20;;;;;;;;;;4956704;28;24776;-60
2021/11/03 14:03:35;;;;;;;3.00;2.80;;;;;;;;;;5003789;28;25000;-60
2021/11/03 14:06:10;;;;;;;3.15;2.88;;;;;;;;;;5001928;28;24432;-60
2021/11/03 14:08:35;;;;;;;3.13;2.92;;;;;;;;;;5001771;28;25013;-60
2021/11/03 14:11:00;;;;;;;3.50;3.20;;;;;;;;;;4998036;28;24467;-59
2021/11/03 14:13:25;;;;;;;3.30;2.80;;;;;;;;;;4998468;28;24997;-59
2021/11/03 14:15:50;;;;;;;3.07;2.87;;;;;;;;;;5003912;28;24408;-59
2021/11/03 14:18:16;;;;;;;2.93;2.70;;;;;;;;;;5003514;28;24455;-59
2021/11/03 14:20:51;;;;;;;2.70;2.50;;;;;;;;;;5001594;28;24985;-59
2021/11/03 14:23:18;;;;;;;2.40;2.30;;;;;;;;;;4997712;28;24712;-60
2021/11/03 14:25:44;;;;;;;2.90;2.70;;;;;;;;;;4999302;28;24424;-59
2021/11/03 14:28:11;;;;;;;3.75;2.90;;;;;;;;;;5003117;28;24409;-59
2021/11/03 14:30:43;;;;;;;2.80;2.60;;;;;;;;;;5001686;28;24407;-60
2021/11/03 14:33:17;;;;;;;2.85;2.65;;;;;;;;;;5003149;28;24490;-61
2021/11/03 14:35:42;;;;;;;3.07;2.70;;;;;;;;;;4999520;28;24466;-59
2021/11/03 14:38:15;;;;;;;2.90;2.70;;;;;;;;;;4998376;28;24499;-59